Time;durP1;ratioP1;P1;durP2;ratioP2;P2;SDS_P1;SDS_P2;PMS_P1;PMS_P2;Temp;Humidity;BMP_temperature;BMP_pressure;BME280_temperature;BME280_humidity;BME280_pressure;Samples;Min_cycle;Max_cycle;Signal;HPM_P1;HPM_P2
2020/12/19 00:00:29;;;;;;;24.53;22.47;;;;;;;;;;4994341;28;20182;-88
2020/12/19 00:03:01;;;;;;;23.77;21.70;;;;;;;;;;4995554;28;20197;-87
2020/12/19 00:05:32;;;;;;;25.87;23.47;;;;;;;;;;4995962;28;20185;-87
2020/12/19 00:08:03;;;;;;;23.83;21.43;;;;;;;;;;4996576;28;20667;-88
2020/12/19 00:10:35;;;;;;;24.77;22.37;;;;;;;;;;4994595;28;20203;-88
2020/12/19 00:13:08;;;;;;;24.40;22.23;;;;;;;;;;4994596;28;20642;-88
2020/12/19 00:15:34;;;;;;;23.23;21.27;;;;;;;;;;4995799;28;20247;-88
2020/12/19 00:18:09;;;;;;;23.37;21.47;;;;;;;;;;4996518;28;20209;-88
2020/12/19 00:20:40;;;;;;;24.37;22.23;;;;;;;;;;4994194;28;20671;-88
2020/12/19 00:23:13;;;;;;;24.73;22.27;;;;;;;;;;4994814;28;20190;-89
2020/12/19 00:25:48;;;;;;;25.43;23.30;;;;;;;;;;4994044;28;20189;-88
2020/12/19 00:28:21;;;;;;;28.83;26.53;;;;;;;;;;4994587;28;20241;-88
2020/12/19 00:30:50;;;;;;;27.80;25.47;;;;;;;;;;4995379;28;20208;-88
2020/12/19 00:33:25;;;;;;;26.00;23.73;;;;;;;;;;4995116;28;20228;-88
2020/12/19 00:35:55;;;;;;;28.80;26.53;;;;;;;;;;4994746;28;20261;-88
2020/12/19 00:38:26;;;;;;;29.13;26.23;;;;;;;;;;4993769;28;20573;-88
2020/12/19 00:40:54;;;;;;;28.70;26.30;;;;;;;;;;4994496;28;20633;-88
2020/12/19 00:43:27;;;;;;;28.00;25.40;;;;;;;;;;4993906;28;20654;-89
2020/12/19 00:46:01;;;;;;;28.07;25.77;;;;;;;;;;4993424;28;20209;-89
2020/12/19 00:48:31;;;;;;;28.37;25.80;;;;;;;;;;4993320;28;20283;-89
2020/12/19 00:51:05;;;;;;;26.63;24.53;;;;;;;;;;4993282;28;20296;-89
2020/12/19 00:53:35;;;;;;;26.43;24.23;;;;;;;;;;4995664;28;20237;-89
2020/12/19 00:56:02;;;;;;;25.80;23.70;;;;;;;;;;4993599;28;20179;-88
2020/12/19 00:58:28;;;;;;;25.17;23.27;;;;;;;;;;4993680;28;20300;-88
2020/12/19 01:01:01;;;;;;;29.20;26.47;;;;;;;;;;4992190;28;20182;-88
2020/12/19 01:03:31;;;;;;;26.63;24.40;;;;;;;;;;4993734;28;20186;-88
2020/12/19 01:06:00;;;;;;;28.30;26.17;;;;;;;;;;4992952;28;20274;-88
2020/12/19 01:08:32;;;;;;;27.93;25.50;;;;;;;;;;4994150;28;20666;-89
2020/12/19 01:11:01;;;;;;;28.13;25.90;;;;;;;;;;4992874;28;20578;-89
2020/12/19 01:13:34;;;;;;;28.13;25.93;;;;;;;;;;4993260;28;20210;-88
2020/12/19 01:16:08;;;;;;;29.07;26.67;;;;;;;;;;4994135;28;20183;-89
2020/12/19 01:18:39;;;;;;;30.50;28.00;;;;;;;;;;4993094;28;20198;-89
2020/12/19 01:21:18;;;;;;;30.70;28.30;;;;;;;;;;4993028;28;20209;-90
2020/12/19 01:23:51;;;;;;;33.63;30.90;;;;;;;;;;4992834;28;20650;-89
2020/12/19 01:26:21;;;;;;;31.53;28.90;;;;;;;;;;4992743;28;20174;-88
2020/12/19 01:28:52;;;;;;;31.53;29.03;;;;;;;;;;4993014;28;20183;-89
2020/12/19 01:31:25;;;;;;;30.90;28.30;;;;;;;;;;4992597;28;20214;-88
2020/12/19 01:33:58;;;;;;;32.00;29.43;;;;;;;;;;4992567;28;20312;-89
2020/12/19 01:36:29;;;;;;;32.43;29.97;;;;;;;;;;4992540;28;20265;-88
2020/12/19 01:39:01;;;;;;;32.07;29.57;;;;;;;;;;4992904;28;20174;-89
2020/12/19 01:41:27;;;;;;;33.13;30.53;;;;;;;;;;4992894;28;20265;-88
2020/12/19 01:43:58;;;;;;;34.53;31.87;;;;;;;;;;4992529;28;20182;-87
2020/12/19 01:46:36;;;;;;;35.10;32.30;;;;;;;;;;4992677;28;20279;-88
2020/12/19 01:49:06;;;;;;;34.77;32.17;;;;;;;;;;4992604;28;20193;-88
2020/12/19 01:51:33;;;;;;;34.83;31.90;;;;;;;;;;4993055;28;20181;-89
2020/12/19 01:54:02;;;;;;;36.70;33.80;;;;;;;;;;4992880;28;20174;-88
2020/12/19 01:56:47;;;;;;;39.20;36.03;;;;;;;;;;4993117;28;20197;-88
2020/12/19 01:59:13;;;;;;;38.17;35.07;;;;;;;;;;4992854;28;20701;-88
2020/12/19 02:01:47;;;;;;;36.63;33.83;;;;;;;;;;4992982;28;20643;-88
2020/12/19 02:04:14;;;;;;;37.70;34.63;;;;;;;;;;4992792;28;20174;-89
2020/12/19 02:06:48;;;;;;;35.50;32.50;;;;;;;;;;4992806;28;20704;-89
2020/12/19 02:09:25;;;;;;;36.43;33.33;;;;;;;;;;4992929;28;20174;-89
2020/12/19 02:12:00;;;;;;;33.33;30.33;;;;;;;;;;4993961;28;20202;-88
2020/12/19 02:14:31;;;;;;;32.17;29.17;;;;;;;;;;4996737;28;20177;-89
2020/12/19 02:17:06;;;;;;;34.03;31.17;;;;;;;;;;4996219;28;20198;-89
2020/12/19 02:19:34;;;;;;;33.47;30.67;;;;;;;;;;4996481;28;20333;-89
2020/12/19 02:22:05;;;;;;;30.90;28.40;;;;;;;;;;4997833;28;20666;-89
2020/12/19 02:24:38;;;;;;;32.03;29.43;;;;;;;;;;4997738;28;20592;-89
2020/12/19 02:27:11;;;;;;;32.33;29.43;;;;;;;;;;4996645;28;20217;-88
2020/12/19 02:29:42;;;;;;;31.00;28.50;;;;;;;;;;4996340;28;20206;-88
2020/12/19 02:32:13;;;;;;;32.00;29.40;;;;;;;;;;4997496;28;20239;-88
2020/12/19 02:34:44;;;;;;;30.30;27.37;;;;;;;;;;4995779;28;20188;-88
2020/12/19 02:37:13;;;;;;;32.73;30.00;;;;;;;;;;4996191;28;20208;-88
2020/12/19 02:39:46;;;;;;;32.07;29.33;;;;;;;;;;4996950;28;20668;-88
2020/12/19 02:42:21;;;;;;;33.20;30.40;;;;;;;;;;4995912;28;20191;-88
2020/12/19 02:44:49;;;;;;;31.33;28.63;;;;;;;;;;4996803;28;20256;-88
2020/12/19 02:47:21;;;;;;;32.80;30.13;;;;;;;;;;4995771;28;20686;-88
2020/12/19 02:49:51;;;;;;;32.90;29.80;;;;;;;;;;4996721;28;20256;-88
2020/12/19 02:52:25;;;;;;;32.40;29.73;;;;;;;;;;4996785;28;20174;-88
2020/12/19 02:54:51;;;;;;;32.47;29.57;;;;;;;;;;4996902;28;20205;-88
2020/12/19 02:57:21;;;;;;;32.93;30.07;;;;;;;;;;4996833;28;20209;-88
2020/12/19 02:59:54;;;;;;;35.27;32.17;;;;;;;;;;4996690;28;20643;-88
2020/12/19 03:02:27;;;;;;;34.33;31.43;;;;;;;;;;4995496;28;20656;-88
2020/12/19 03:04:59;;;;;;;34.47;31.47;;;;;;;;;;4996826;28;20223;-88
2020/12/19 03:07:25;;;;;;;35.97;32.77;;;;;;;;;;4995153;28;20284;-88
2020/12/19 03:09:54;;;;;;;36.77;33.77;;;;;;;;;;4995255;28;20563;-88
2020/12/19 03:12:30;;;;;;;35.40;32.40;;;;;;;;;;4996457;28;20178;-88
2020/12/19 03:15:01;;;;;;;39.77;36.27;;;;;;;;;;4996385;28;20173;-88
2020/12/19 03:17:35;;;;;;;37.83;34.63;;;;;;;;;;4996240;28;20256;-88
2020/12/19 03:20:09;;;;;;;37.73;34.53;;;;;;;;;;4996347;28;20645;-88
2020/12/19 03:22:40;;;;;;;40.07;36.47;;;;;;;;;;4996360;28;20533;-88
2020/12/19 03:25:09;;;;;;;39.57;36.23;;;;;;;;;;4995480;28;20182;-88
2020/12/19 03:27:41;;;;;;;39.07;35.77;;;;;;;;;;5082563;23;20230;-87
2020/12/19 03:30:14;;;;;;;40.20;36.63;;;;;;;;;;4994609;28;20213;-87
2020/12/19 03:32:42;;;;;;;40.77;37.37;;;;;;;;;;4995447;28;20180;-88
2020/12/19 03:35:14;;;;;;;40.63;36.77;;;;;;;;;;4994724;28;20185;-88
2020/12/19 03:37:47;;;;;;;40.90;37.47;;;;;;;;;;4996138;28;20237;-88
2020/12/19 03:40:20;;;;;;;40.43;37.03;;;;;;;;;;4994726;28;20606;-88
2020/12/19 03:42:52;;;;;;;38.43;35.07;;;;;;;;;;4996008;28;20188;-89
2020/12/19 03:45:21;;;;;;;40.47;36.83;;;;;;;;;;4994522;28;20217;-88
2020/12/19 03:47:54;;;;;;;40.03;36.80;;;;;;;;;;4994747;28;20297;-89
2020/12/19 03:50:21;;;;;;;40.13;36.57;;;;;;;;;;4994465;28;20255;-87
2020/12/19 03:52:52;;;;;;;40.07;36.70;;;;;;;;;;4994380;28;20206;-89
2020/12/19 03:55:25;;;;;;;39.50;36.13;;;;;;;;;;4994704;28;20188;-89
2020/12/19 03:57:58;;;;;;;41.20;37.40;;;;;;;;;;4994384;28;20629;-89
2020/12/19 04:00:31;;;;;;;39.13;35.67;;;;;;;;;;4994581;28;20181;-89
2020/12/19 04:03:06;;;;;;;39.27;35.90;;;;;;;;;;4994150;28;20182;-89
2020/12/19 04:05:33;;;;;;;36.90;33.50;;;;;;;;;;4995898;28;20177;-89
2020/12/19 04:08:05;;;;;;;38.80;35.00;;;;;;;;;;4994611;28;20202;-89
2020/12/19 04:10:38;;;;;;;39.13;35.50;;;;;;;;;;4994151;28;20208;-89
2020/12/19 04:13:10;;;;;;;38.00;34.80;;;;;;;;;;4993908;28;20181;-89
2020/12/19 04:15:41;;;;;;;37.80;34.47;;;;;;;;;;4995165;28;20178;-89
2020/12/19 04:18:14;;;;;;;39.07;35.47;;;;;;;;;;4993832;28;20220;-88
2020/12/19 04:20:45;;;;;;;38.50;35.13;;;;;;;;;;4993768;28;20177;-89
2020/12/19 04:23:16;;;;;;;39.50;35.93;;;;;;;;;;4993712;28;20185;-89
2020/12/19 04:25:47;;;;;;;40.13;36.73;;;;;;;;;;4994802;28;20641;-89
2020/12/19 04:28:21;;;;;;;40.10;36.40;;;;;;;;;;4994994;28;20732;-89
2020/12/19 04:30:52;;;;;;;39.50;35.70;;;;;;;;;;4993833;28;20205;-89
2020/12/19 04:33:27;;;;;;;39.27;35.70;;;;;;;;;;4994925;28;20588;-89
2020/12/19 04:36:01;;;;;;;38.17;34.77;;;;;;;;;;4995161;28;20169;-89
2020/12/19 04:38:31;;;;;;;38.43;34.63;;;;;;;;;;4994764;28;20200;-89
2020/12/19 04:41:04;;;;;;;38.13;34.67;;;;;;;;;;4994574;28;20609;-89
2020/12/19 04:43:38;;;;;;;39.70;36.00;;;;;;;;;;4993787;28;20223;-89
2020/12/19 04:46:10;;;;;;;38.70;34.93;;;;;;;;;;4994685;28;20257;-88
2020/12/19 04:48:39;;;;;;;40.80;36.97;;;;;;;;;;4993353;28;20573;-89
2020/12/19 04:51:11;;;;;;;40.37;36.60;;;;;;;;;;4994397;28;20287;-89
2020/12/19 04:53:44;;;;;;;41.37;37.33;;;;;;;;;;4994405;28;20166;-89
2020/12/19 04:56:17;;;;;;;39.30;35.67;;;;;;;;;;4993968;28;20575;-89
2020/12/19 04:58:55;;;;;;;38.57;35.23;;;;;;;;;;4994335;28;20197;-89
2020/12/19 05:01:30;;;;;;;41.50;37.60;;;;;;;;;;4993157;28;20642;-89
2020/12/19 05:04:00;;;;;;;40.73;37.13;;;;;;;;;;4993913;28;20662;-89
2020/12/19 05:06:30;;;;;;;41.87;38.13;;;;;;;;;;4993844;28;20540;-88
2020/12/19 05:09:02;;;;;;;39.70;36.17;;;;;;;;;;4993821;28;20177;-89
2020/12/19 05:11:34;;;;;;;42.23;37.77;;;;;;;;;;4994331;28;20204;-89
2020/12/19 05:14:06;;;;;;;41.17;37.60;;;;;;;;;;4993119;28;20182;-89
2020/12/19 05:16:38;;;;;;;41.47;37.50;;;;;;;;;;4994269;28;20209;-89
2020/12/19 05:19:12;;;;;;;41.60;37.90;;;;;;;;;;4993023;28;20170;-89
2020/12/19 05:21:44;;;;;;;38.47;35.03;;;;;;;;;;4992853;28;20186;-89
2020/12/19 05:24:20;;;;;;;40.17;36.67;;;;;;;;;;4994256;28;20670;-89
2020/12/19 05:26:55;;;;;;;39.50;36.07;;;;;;;;;;4992873;28;20288;-89
2020/12/19 05:29:27;;;;;;;41.03;37.23;;;;;;;;;;4992787;28;20185;-89
2020/12/19 05:32:03;;;;;;;40.90;37.07;;;;;;;;;;4993371;28;20536;-89
2020/12/19 05:34:38;;;;;;;40.20;36.40;;;;;;;;;;4993047;28;20190;-89
2020/12/19 05:37:10;;;;;;;40.37;36.63;;;;;;;;;;4993323;28;20196;-89
2020/12/19 05:39:52;;;;;;;40.63;36.90;;;;;;;;;;4994177;28;20737;-89
2020/12/19 05:42:25;;;;;;;41.07;37.37;;;;;;;;;;4992704;28;20210;-88
2020/12/19 05:44:56;;;;;;;40.00;36.17;;;;;;;;;;4993499;28;20185;-88
2020/12/19 05:47:33;;;;;;;40.07;36.27;;;;;;;;;;4995107;28;20256;-88
2020/12/19 05:50:07;;;;;;;39.67;35.53;;;;;;;;;;4996514;28;20206;-89
2020/12/19 05:52:40;;;;;;;43.03;38.73;;;;;;;;;;4996432;28;20205;-89
2020/12/19 05:55:19;;;;;;;41.17;37.37;;;;;;;;;;4996548;28;20174;-89
2020/12/19 05:57:51;;;;;;;42.87;38.57;;;;;;;;;;4997690;28;20569;-89
2020/12/19 06:00:24;;;;;;;41.83;37.77;;;;;;;;;;4996477;28;20638;-88
2020/12/19 06:03:00;;;;;;;41.23;37.53;;;;;;;;;;4997632;28;20257;-89
2020/12/19 06:05:33;;;;;;;39.27;35.63;;;;;;;;;;4996511;28;20185;-88
2020/12/19 06:08:05;;;;;;;39.53;36.07;;;;;;;;;;4996184;28;20230;-89
2020/12/19 06:10:33;;;;;;;43.13;38.90;;;;;;;;;;4997381;28;20674;-89
2020/12/19 06:13:05;;;;;;;42.97;39.07;;;;;;;;;;4996114;28;20182;-89
2020/12/19 06:15:33;;;;;;;41.20;37.10;;;;;;;;;;4997642;28;20201;-89
2020/12/19 06:18:08;;;;;;;40.77;37.27;;;;;;;;;;4996450;28;20728;-89
2020/12/19 06:20:38;;;;;;;39.90;36.20;;;;;;;;;;4997381;28;20169;-89
2020/12/19 06:23:25;;;;;;;40.20;36.53;;;;;;;;;;4996846;28;20553;-89
2020/12/19 06:25:58;;;;;;;39.10;35.43;;;;;;;;;;4995960;28;20174;-89
2020/12/19 06:28:48;;;;;;;40.20;36.63;;;;;;;;;;4995860;28;20251;-89
2020/12/19 06:31:28;;;;;;;41.73;37.93;;;;;;;;;;4995862;28;20221;-89
2020/12/19 06:34:04;;;;;;;50.73;46.43;;;;;;;;;;4995974;28;20178;-89
2020/12/19 06:36:35;;;;;;;51.57;47.07;;;;;;;;;;4995809;28;20197;-89
2020/12/19 06:39:19;;;;;;;51.37;46.77;;;;;;;;;;4996125;28;20174;-89
2020/12/19 06:42:00;;;;;;;49.93;45.67;;;;;;;;;;4996340;28;20584;-89
2020/12/19 06:44:31;;;;;;;52.13;47.67;;;;;;;;;;4995678;28;20174;-89
2020/12/19 06:47:05;;;;;;;49.70;45.50;;;;;;;;;;4995673;28;20606;-89
2020/12/19 06:49:36;;;;;;;52.17;47.80;;;;;;;;;;4995462;28;20201;-89
2020/12/19 06:52:09;;;;;;;48.43;44.43;;;;;;;;;;4995432;28;20248;-88
2020/12/19 06:54:41;;;;;;;50.07;45.67;;;;;;;;;;4995592;28;20228;-89
2020/12/19 06:57:21;;;;;;;52.87;48.57;;;;;;;;;;4995245;28;20202;-89
2020/12/19 06:59:55;;;;;;;49.17;45.07;;;;;;;;;;4993945;28;20188;-88
2020/12/19 07:02:29;;;;;;;51.30;46.90;;;;;;;;;;4996838;28;20174;-89
2020/12/19 07:05:00;;;;;;;50.47;45.77;;;;;;;;;;4995864;28;20185;-89
2020/12/19 07:07:27;;;;;;;51.37;46.93;;;;;;;;;;4995231;28;20201;-89
2020/12/19 07:10:00;;;;;;;48.93;44.37;;;;;;;;;;4996197;28;20281;-89
2020/12/19 07:12:36;;;;;;;49.83;45.60;;;;;;;;;;4996616;28;20542;-88
2020/12/19 07:15:05;;;;;;;48.13;43.93;;;;;;;;;;4996421;28;20173;-89
2020/12/19 07:17:45;;;;;;;48.67;44.30;;;;;;;;;;4995182;28;20194;-88
2020/12/19 07:20:17;;;;;;;48.77;44.67;;;;;;;;;;4995058;28;20176;-88
2020/12/19 07:22:48;;;;;;;48.20;43.97;;;;;;;;;;4995217;28;20256;-89
2020/12/19 07:25:18;;;;;;;49.60;45.10;;;;;;;;;;4995320;28;20181;-89
2020/12/19 07:27:48;;;;;;;49.37;45.13;;;;;;;;;;4994872;28;20213;-88
2020/12/19 07:30:14;;;;;;;50.17;45.80;;;;;;;;;;4995179;28;20212;-89
2020/12/19 07:32:48;;;;;;;50.77;46.13;;;;;;;;;;4995026;28;20174;-89
2020/12/19 07:35:23;;;;;;;47.93;43.70;;;;;;;;;;4995847;28;20177;-89
2020/12/19 07:37:54;;;;;;;48.93;44.30;;;;;;;;;;4995881;28;20247;-89
2020/12/19 07:40:25;;;;;;;48.00;43.73;;;;;;;;;;4994531;28;20198;-89
2020/12/19 07:43:01;;;;;;;47.13;43.00;;;;;;;;;;4994842;28;20182;-88
2020/12/19 07:45:31;;;;;;;59.73;54.80;;;;;;;;;;4994580;28;20272;-89
2020/12/19 07:48:02;;;;;;;60.63;55.70;;;;;;;;;;4994868;28;20204;-89
2020/12/19 07:50:35;;;;;;;58.13;53.30;;;;;;;;;;4995927;28;20577;-89
2020/12/19 07:53:09;;;;;;;60.53;54.93;;;;;;;;;;4994617;28;20174;-89
2020/12/19 07:55:41;;;;;;;55.90;51.23;;;;;;;;;;4994662;28;20175;-89
2020/12/19 07:58:13;;;;;;;55.77;51.23;;;;;;;;;;4994741;28;20603;-88
2020/12/19 08:00:50;;;;;;;59.60;54.40;;;;;;;;;;4994163;28;20180;-89
2020/12/19 08:03:21;;;;;;;60.93;55.47;;;;;;;;;;4994308;28;20178;-89
2020/12/19 08:06:01;;;;;;;58.03;52.87;;;;;;;;;;4994462;28;20348;-89
2020/12/19 08:08:33;;;;;;;56.63;51.70;;;;;;;;;;4993927;28;20707;-89
2020/12/19 08:11:07;;;;;;;55.33;50.23;;;;;;;;;;4994784;28;20667;-89
2020/12/19 08:13:39;;;;;;;57.87;52.77;;;;;;;;;;4994278;28;20174;-89
2020/12/19 08:16:10;;;;;;;54.40;49.60;;;;;;;;;;4994031;28;20170;-89
2020/12/19 08:18:36;;;;;;;54.07;49.20;;;;;;;;;;4995116;28;20273;-89
2020/12/19 08:21:14;;;;;;;51.53;46.63;;;;;;;;;;4993842;28;20190;-89
2020/12/19 08:23:48;;;;;;;46.17;41.30;;;;;;;;;;4993946;28;20652;-89
2020/12/19 08:26:20;;;;;;;42.03;37.83;;;;;;;;;;4993836;28;20177;-89
2020/12/19 08:29:14;;;;;;;41.83;37.80;;;;;;;;;;4993392;28;20225;-89
2020/12/19 08:31:44;;;;;;;43.23;39.00;;;;;;;;;;4991463;28;20214;-89
2020/12/19 08:34:12;;;;;;;42.93;38.23;;;;;;;;;;4994994;28;20173;-89
2020/12/19 08:36:53;;;;;;;43.10;38.83;;;;;;;;;;4993414;28;20524;-88
2020/12/19 08:39:25;;;;;;;40.07;35.73;;;;;;;;;;4993595;28;20204;-89
2020/12/19 08:41:59;;;;;;;39.43;35.37;;;;;;;;;;4993414;28;20174;-89
2020/12/19 08:44:28;;;;;;;39.57;35.50;;;;;;;;;;4994757;28;20547;-89
2020/12/19 08:47:08;;;;;;;38.07;33.80;;;;;;;;;;4993487;28;20602;-89
2020/12/19 08:49:39;;;;;;;38.73;34.60;;;;;;;;;;4994475;28;20665;-89
2020/12/19 08:52:09;;;;;;;37.03;33.13;;;;;;;;;;4993313;28;20208;-89
2020/12/19 08:54:38;;;;;;;35.60;31.70;;;;;;;;;;4994621;28;20249;-89
2020/12/19 08:57:29;;;;;;;33.93;30.30;;;;;;;;;;4993327;28;20253;-89
2020/12/19 09:00:24;;;;;;;37.50;33.50;;;;;;;;;;4993177;28;20175;-89
2020/12/19 09:02:58;;;;;;;39.50;35.20;;;;;;;;;;4991345;28;20190;-89
2020/12/19 09:05:34;;;;;;;45.77;35.27;;;;;;;;;;4993321;28;20525;-89
2020/12/19 09:08:01;;;;;;;35.83;31.47;;;;;;;;;;4993250;28;20201;-89
2020/12/19 09:10:35;;;;;;;36.50;30.97;;;;;;;;;;4993273;28;20260;-88
2020/12/19 09:13:17;;;;;;;35.20;31.30;;;;;;;;;;4993464;28;20178;-89
2020/12/19 09:15:48;;;;;;;34.80;31.03;;;;;;;;;;4992883;28;20182;-89
2020/12/19 09:18:14;;;;;;;36.37;31.50;;;;;;;;;;4993404;28;20197;-89
2020/12/19 09:20:46;;;;;;;38.97;33.87;;;;;;;;;;4993091;28;20181;-89
2020/12/19 09:23:14;;;;;;;41.27;36.10;;;;;;;;;;4993341;28;20249;-89
2020/12/19 09:25:47;;;;;;;40.43;33.50;;;;;;;;;;4993594;28;20178;-88
2020/12/19 09:28:18;;;;;;;38.47;34.50;;;;;;;;;;5088692;23;20264;-87
2020/12/19 09:30:46;;;;;;;36.33;32.20;;;;;;;;;;4992799;28;20202;-88
2020/12/19 09:33:18;;;;;;;41.93;35.33;;;;;;;;;;4993670;28;20540;-87
2020/12/19 09:35:56;;;;;;;40.77;33.33;;;;;;;;;;4994189;28;20170;-89
2020/12/19 09:38:27;;;;;;;40.20;34.00;;;;;;;;;;4993211;28;20195;-88
2020/12/19 09:40:54;;;;;;;38.43;33.10;;;;;;;;;;4993489;28;20623;-89
2020/12/19 09:43:20;;;;;;;37.70;31.10;;;;;;;;;;4993914;28;20181;-88
2020/12/19 09:45:56;;;;;;;38.17;32.87;;;;;;;;;;4993106;28;20179;-88
2020/12/19 09:48:28;;;;;;;38.57;34.30;;;;;;;;;;4994359;28;20605;-88
2020/12/19 09:50:57;;;;;;;41.90;34.87;;;;;;;;;;4994150;28;20191;-88
2020/12/19 09:53:25;;;;;;;37.63;33.77;;;;;;;;;;4992839;28;20658;-89
2020/12/19 09:55:53;;;;;;;41.03;36.07;;;;;;;;;;4993333;28;20523;-88
2020/12/19 09:58:21;;;;;;;40.93;34.57;;;;;;;;;;4992883;28;20293;-89
2020/12/19 10:00:51;;;;;;;39.87;34.23;;;;;;;;;;4992937;28;20211;-88
2020/12/19 10:03:20;;;;;;;38.73;34.43;;;;;;;;;;4993067;28;20647;-88
2020/12/19 10:05:50;;;;;;;35.40;31.67;;;;;;;;;;4993381;28;20550;-88
2020/12/19 10:08:21;;;;;;;39.47;35.27;;;;;;;;;;4992742;28;20302;-88
2020/12/19 10:10:51;;;;;;;37.80;31.73;;;;;;;;;;4994151;28;20199;-88
2020/12/19 10:13:19;;;;;;;37.27;31.80;;;;;;;;;;4994102;28;20181;-88
2020/12/19 10:15:48;;;;;;;38.50;33.90;;;;;;;;;;4992485;28;20222;-89
2020/12/19 10:18:20;;;;;;;40.77;35.67;;;;;;;;;;4993437;28;20282;-88
2020/12/19 10:20:47;;;;;;;37.30;31.27;;;;;;;;;;4992745;28;20531;-88
2020/12/19 10:23:13;;;;;;;39.33;34.00;;;;;;;;;;4992611;28;20650;-88
2020/12/19 10:25:40;;;;;;;37.63;33.60;;;;;;;;;;4993194;28;20189;-88
2020/12/19 10:28:07;;;;;;;39.60;35.27;;;;;;;;;;4992516;28;20258;-88
2020/12/19 10:30:35;;;;;;;38.83;33.50;;;;;;;;;;4992467;28;20680;-88
2020/12/19 10:33:02;;;;;;;44.33;34.20;;;;;;;;;;4994292;28;20170;-89
2020/12/19 10:35:29;;;;;;;39.17;35.03;;;;;;;;;;4996162;28;20166;-88
2020/12/19 10:38:00;;;;;;;39.23;35.17;;;;;;;;;;4997632;28;20192;-89
2020/12/19 10:40:28;;;;;;;38.00;34.00;;;;;;;;;;4996382;28;20264;-89
2020/12/19 10:42:54;;;;;;;39.30;35.10;;;;;;;;;;4997513;28;20184;-88
2020/12/19 10:45:20;;;;;;;39.63;35.33;;;;;;;;;;4996027;28;20186;-89
2020/12/19 10:47:51;;;;;;;42.23;36.23;;;;;;;;;;4996061;28;20203;-89
2020/12/19 10:50:19;;;;;;;39.07;35.37;;;;;;;;;;4997766;28;20199;-88
2020/12/19 10:52:48;;;;;;;39.00;34.97;;;;;;;;;;4995961;28;20179;-89
2020/12/19 10:55:19;;;;;;;37.07;33.20;;;;;;;;;;4995924;28;20179;-88
2020/12/19 10:57:49;;;;;;;40.43;36.20;;;;;;;;;;4996172;28;20572;-88
2020/12/19 11:00:21;;;;;;;37.43;33.57;;;;;;;;;;4996028;28;20203;-89
2020/12/19 11:02:54;;;;;;;40.67;36.57;;;;;;;;;;4995743;28;20191;-89
2020/12/19 11:05:29;;;;;;;38.40;34.40;;;;;;;;;;4995704;28;20178;-89
2020/12/19 11:08:00;;;;;;;43.77;39.60;;;;;;;;;;4995502;28;20750;-89
2020/12/19 11:10:29;;;;;;;46.73;41.87;;;;;;;;;;4995455;28;20204;-89
2020/12/19 11:13:04;;;;;;;43.73;39.47;;;;;;;;;;4995907;28;20181;-89
2020/12/19 11:15:44;;;;;;;40.20;36.33;;;;;;;;;;4996384;28;20181;-89
2020/12/19 11:18:16;;;;;;;38.90;35.27;;;;;;;;;;4995545;28;20197;-89
2020/12/19 11:20:51;;;;;;;38.50;35.07;;;;;;;;;;4995502;28;20177;-89
2020/12/19 11:23:20;;;;;;;41.23;37.53;;;;;;;;;;4995359;28;20174;-89
2020/12/19 11:25:55;;;;;;;43.73;39.53;;;;;;;;;;4995441;28;20657;-89
2020/12/19 11:28:27;;;;;;;42.20;38.47;;;;;;;;;;4995210;28;20218;-88
2020/12/19 11:30:57;;;;;;;40.07;36.50;;;;;;;;;;4995750;28;20197;-89
2020/12/19 11:33:24;;;;;;;46.30;42.50;;;;;;;;;;4995765;28;20781;-89
2020/12/19 11:35:54;;;;;;;47.23;43.43;;;;;;;;;;4995338;28;20661;-89
2020/12/19 11:38:23;;;;;;;44.93;41.10;;;;;;;;;;4995813;28;20202;-88
2020/12/19 11:40:49;;;;;;;47.77;43.77;;;;;;;;;;4995927;28;20186;-89
2020/12/19 11:43:15;;;;;;;47.10;43.30;;;;;;;;;;4995755;28;20181;-89
2020/12/19 11:45:44;;;;;;;45.83;42.27;;;;;;;;;;4995675;28;20181;-89
2020/12/19 11:48:17;;;;;;;45.77;42.10;;;;;;;;;;4996263;28;20654;-89
2020/12/19 11:50:44;;;;;;;48.67;44.60;;;;;;;;;;4994948;28;20206;-89
2020/12/19 11:53:11;;;;;;;46.60;42.80;;;;;;;;;;4995677;28;20166;-89
2020/12/19 11:55:38;;;;;;;45.47;41.73;;;;;;;;;;4995103;28;20261;-90
2020/12/19 11:58:05;;;;;;;45.20;41.47;;;;;;;;;;4995535;28;20360;-89
2020/12/19 12:00:31;;;;;;;45.17;41.73;;;;;;;;;;4995411;28;20209;-89
2020/12/19 12:02:57;;;;;;;46.37;42.50;;;;;;;;;;4995285;28;20237;-90
2020/12/19 12:05:25;;;;;;;32.80;29.77;;;;;;;;;;4995082;28;20178;-89
2020/12/19 12:07:52;;;;;;;45.47;41.67;;;;;;;;;;4995578;28;20198;-89
2020/12/19 12:10:19;;;;;;;31.17;28.57;;;;;;;;;;4994787;28;20198;-89
2020/12/19 12:12:45;;;;;;;34.37;31.33;;;;;;;;;;4995715;28;20210;-89
2020/12/19 12:15:14;;;;;;;32.23;29.43;;;;;;;;;;4995548;28;20185;-89
2020/12/19 12:17:48;;;;;;;40.40;36.77;;;;;;;;;;4994374;28;20205;-89
2020/12/19 12:20:29;;;;;;;30.80;28.17;;;;;;;;;;4994255;28;20186;-89
2020/12/19 12:23:01;;;;;;;38.53;35.43;;;;;;;;;;4994631;28;20178;-89
2020/12/19 12:25:32;;;;;;;35.90;33.10;;;;;;;;;;4994093;28;20266;-89
2020/12/19 12:28:01;;;;;;;43.53;39.97;;;;;;;;;;4994071;28;20617;-89
2020/12/19 12:30:33;;;;;;;39.87;36.67;;;;;;;;;;4993835;28;20689;-89
2020/12/19 12:33:01;;;;;;;40.03;36.50;;;;;;;;;;4994044;28;20178;-89
2020/12/19 12:35:31;;;;;;;32.57;29.57;;;;;;;;;;4994974;28;20170;-89
2020/12/19 12:38:04;;;;;;;28.43;25.67;;;;;;;;;;4994915;28;20682;-89
2020/12/19 12:40:37;;;;;;;34.93;31.97;;;;;;;;;;4994218;28;20642;-89
2020/12/19 12:43:11;;;;;;;36.97;33.83;;;;;;;;;;4993835;28;20258;-89
2020/12/19 12:45:42;;;;;;;40.13;36.73;;;;;;;;;;4993817;28;20240;-89
2020/12/19 12:48:11;;;;;;;34.50;31.30;;;;;;;;;;4993923;28;20257;-89
2020/12/19 12:50:44;;;;;;;35.80;32.70;;;;;;;;;;4994801;28;20203;-89
2020/12/19 12:53:16;;;;;;;30.90;28.13;;;;;;;;;;4994774;28;20257;-89
2020/12/19 12:55:43;;;;;;;31.20;28.63;;;;;;;;;;4994602;28;20183;-89
2020/12/19 12:58:16;;;;;;;33.80;30.87;;;;;;;;;;4994009;28;20206;-89
2020/12/19 13:00:45;;;;;;;31.20;28.60;;;;;;;;;;4994507;28;20249;-89
2020/12/19 13:03:12;;;;;;;32.37;29.43;;;;;;;;;;4995275;28;20182;-89
2020/12/19 13:05:44;;;;;;;33.67;30.90;;;;;;;;;;4994218;28;20185;-89
2020/12/19 13:08:21;;;;;;;31.23;28.43;;;;;;;;;;4994024;28;20701;-89
2020/12/19 13:10:55;;;;;;;33.07;30.07;;;;;;;;;;4994046;28;20289;-89
2020/12/19 13:13:21;;;;;;;34.33;31.30;;;;;;;;;;4994258;28;20170;-89
2020/12/19 13:15:52;;;;;;;34.07;31.17;;;;;;;;;;4994670;28;20216;-89
2020/12/19 13:18:25;;;;;;;33.47;30.43;;;;;;;;;;4994160;28;20295;-90
2020/12/19 13:20:55;;;;;;;30.80;28.30;;;;;;;;;;4993965;28;20255;-88
2020/12/19 13:23:26;;;;;;;31.80;28.80;;;;;;;;;;4993459;28;20182;-89
2020/12/19 13:25:56;;;;;;;29.20;26.80;;;;;;;;;;4993232;28;20182;-89
2020/12/19 13:28:25;;;;;;;29.87;27.47;;;;;;;;;;4993415;28;20268;-89
2020/12/19 13:30:54;;;;;;;31.37;28.57;;;;;;;;;;4992783;28;20201;-88
2020/12/19 13:33:31;;;;;;;29.67;27.10;;;;;;;;;;4993414;28;20184;-89
2020/12/19 13:35:58;;;;;;;28.97;26.27;;;;;;;;;;4993713;28;20177;-89
2020/12/19 13:38:24;;;;;;;29.13;26.70;;;;;;;;;;4993582;28;20576;-90
2020/12/19 13:40:50;;;;;;;29.30;26.60;;;;;;;;;;4992825;28;20264;-89
2020/12/19 13:43:16;;;;;;;29.03;26.33;;;;;;;;;;4993496;28;20199;-89
2020/12/19 13:45:42;;;;;;;28.70;26.20;;;;;;;;;;4994019;28;20589;-89
2020/12/19 13:48:09;;;;;;;28.57;26.07;;;;;;;;;;4993725;28;20201;-89
2020/12/19 13:50:38;;;;;;;27.17;24.77;;;;;;;;;;4993338;28;20229;-90
2020/12/19 13:53:11;;;;;;;26.87;24.43;;;;;;;;;;4993598;28;20185;-89
2020/12/19 13:55:37;;;;;;;27.87;25.37;;;;;;;;;;4992910;28;20182;-90
2020/12/19 13:58:06;;;;;;;25.50;23.50;;;;;;;;;;4993251;28;20194;-90
2020/12/19 14:00:35;;;;;;;27.80;25.40;;;;;;;;;;4994578;28;20192;-91
2020/12/19 14:03:01;;;;;;;27.87;25.27;;;;;;;;;;4994000;28;20186;-91
2020/12/19 14:05:29;;;;;;;27.23;24.80;;;;;;;;;;4993469;28;20186;-90
2020/12/19 14:07:58;;;;;;;29.67;26.97;;;;;;;;;;4993180;28;20279;-88
2020/12/19 14:10:27;;;;;;;26.77;24.37;;;;;;;;;;4996206;28;20212;-88
2020/12/19 14:12:56;;;;;;;29.10;26.50;;;;;;;;;;4996585;28;20658;-88
2020/12/19 14:15:29;;;;;;;28.27;25.77;;;;;;;;;;4996346;28;20178;-88
2020/12/19 14:18:01;;;;;;;27.70;25.20;;;;;;;;;;4996014;28;20193;-88
2020/12/19 14:20:27;;;;;;;28.37;25.87;;;;;;;;;;4996203;28;20226;-88
2020/12/19 14:22:54;;;;;;;29.93;27.33;;;;;;;;;;4997374;28;20182;-88
2020/12/19 14:25:24;;;;;;;28.70;26.10;;;;;;;;;;4996129;28;20197;-89
2020/12/19 14:27:56;;;;;;;27.87;25.40;;;;;;;;;;4995866;28;20245;-88
2020/12/19 14:30:25;;;;;;;28.87;26.13;;;;;;;;;;4996706;28;20210;-89
2020/12/19 14:32:53;;;;;;;29.77;27.07;;;;;;;;;;4995920;28;20204;-88
2020/12/19 14:35:23;;;;;;;28.10;25.70;;;;;;;;;;4995735;28;20262;-88
2020/12/19 14:37:54;;;;;;;27.57;25.33;;;;;;;;;;4996082;28;20666;-88
2020/12/19 14:40:24;;;;;;;29.10;26.63;;;;;;;;;;4995837;28;20186;-88